createdAt,value
2023-06-09T00:00:31.273Z,19.17
2023-06-09T00:03:01.113Z,19.28
2023-06-09T00:05:33.596Z,19.42
2023-06-09T00:08:04.004Z,19.43
2023-06-09T00:10:32.366Z,19.29
2023-06-09T00:13:04.480Z,19.03
2023-06-09T00:15:33.501Z,19.07
2023-06-09T00:18:04.282Z,18.91
2023-06-09T00:20:35.308Z,18.73
2023-06-09T00:23:05.543Z,18.63
2023-06-09T00:25:34.805Z,18.57
2023-06-09T00:28:03.219Z,18.60
2023-06-09T00:30:39.761Z,18.58
2023-06-09T00:33:09.206Z,18.55
2023-06-09T00:35:38.681Z,18.59
2023-06-09T00:38:09.255Z,18.51
2023-06-09T00:40:38.398Z,18.42
2023-06-09T00:43:07.167Z,18.37
2023-06-09T00:45:35.358Z,18.22
2023-06-09T00:48:04.580Z,18.31
2023-06-09T00:50:33.560Z,18.17
2023-06-09T00:53:02.595Z,18.09
2023-06-09T00:55:34.762Z,18.13
2023-06-09T00:58:05.193Z,17.99
2023-06-09T01:00:35.146Z,18.12
2023-06-09T01:03:05.014Z,18.19
2023-06-09T01:05:37.849Z,18.28
2023-06-09T01:08:12.575Z,18.11
2023-06-09T01:10:47.491Z,18.05
2023-06-09T01:13:24.253Z,17.92
2023-06-09T01:16:02.184Z,17.88
2023-06-09T01:18:33.170Z,17.80
2023-06-09T01:21:14.219Z,17.56
2023-06-09T01:23:52.775Z,17.97
2023-06-09T01:26:26.392Z,17.56
2023-06-09T01:28:57.958Z,17.54
2023-06-09T01:31:26.939Z,17.54
2023-06-09T01:33:56.267Z,17.71
2023-06-09T01:36:24.733Z,17.65
2023-06-09T01:38:53.436Z,17.47
2023-06-09T01:41:23.143Z,17.48
2023-06-09T01:43:51.782Z,17.56
2023-06-09T01:46:20.400Z,17.50
2023-06-09T01:48:59.407Z,17.48
2023-06-09T01:51:35.243Z,17.48
2023-06-09T01:54:10.046Z,17.07
2023-06-09T01:56:45.369Z,16.90
2023-06-09T01:59:20.684Z,17.27
2023-06-09T02:01:51.563Z,17.34
2023-06-09T02:04:23.948Z,17.29
2023-06-09T02:06:53.786Z,17.16
2023-06-09T02:09:24.094Z,17.23
2023-06-09T02:11:55.854Z,17.05
2023-06-09T02:14:23.977Z,16.81
2023-06-09T02:16:54.726Z,16.64
2023-06-09T02:19:23.570Z,16.66
2023-06-09T02:21:51.746Z,16.58
2023-06-09T02:24:20.392Z,16.61
2023-06-09T02:26:53.353Z,16.66
2023-06-09T02:29:21.931Z,16.64
2023-06-09T02:31:50.304Z,16.64
2023-06-09T02:34:20.562Z,16.67
2023-06-09T02:36:50.349Z,16.64
2023-06-09T02:39:19.058Z,16.64
2023-06-09T02:41:48.273Z,16.58
2023-06-09T02:44:18.651Z,16.47
2023-06-09T02:46:46.836Z,15.90
2023-06-09T02:49:17.604Z,16.03
2023-06-09T02:51:47.082Z,15.77
2023-06-09T02:54:18.081Z,15.66
2023-06-09T02:56:46.885Z,15.33
2023-06-09T02:59:15.358Z,15.48
2023-06-09T03:01:44.967Z,15.44
2023-06-09T03:04:14.045Z,14.88
2023-06-09T03:06:44.839Z,15.49
2023-06-09T03:09:14.391Z,15.35
2023-06-09T03:11:42.967Z,15.33
2023-06-09T03:14:11.156Z,15.40
2023-06-09T03:16:39.596Z,15.42
2023-06-09T03:19:11.990Z,15.53
2023-06-09T03:21:40.730Z,15.73
2023-06-09T03:24:09.185Z,15.79
2023-06-09T03:26:37.465Z,15.51
2023-06-09T03:29:05.877Z,15.67
2023-06-09T03:31:34.397Z,15.96
2023-06-09T03:34:02.942Z,16.03
2023-06-09T03:36:34.531Z,16.15
2023-06-09T03:39:03.063Z,16.29
2023-06-09T03:41:31.305Z,16.36
2023-06-09T03:43:59.466Z,16.54
2023-06-09T03:46:28.096Z,16.14
2023-06-09T03:48:56.364Z,16.40
2023-06-09T03:51:27.851Z,16.36
2023-06-09T03:53:57.422Z,16.33
2023-06-09T03:56:26.733Z,16.37
2023-06-09T03:58:55.357Z,16.31
2023-06-09T04:01:24.112Z,15.97
2023-06-09T04:03:52.535Z,16.41
2023-06-09T04:06:22.620Z,16.54
2023-06-09T04:08:53.161Z,16.63
2023-06-09T04:11:24.640Z,16.90
2023-06-09T04:13:53.859Z,17.20
2023-06-09T04:16:24.013Z,17.31
2023-06-09T04:18:52.495Z,17.30
2023-06-09T04:21:20.727Z,17.48
2023-06-09T04:23:48.957Z,17.62
2023-06-09T04:26:17.114Z,17.70
2023-06-09T04:28:47.830Z,17.89
2023-06-09T04:31:20.370Z,18.29
2023-06-09T04:33:49.806Z,18.78
2023-06-09T04:36:18.558Z,18.90
2023-06-09T04:38:47.799Z,19.08
2023-06-09T04:41:18.903Z,18.80
2023-06-09T04:43:51.067Z,18.66
2023-06-09T04:46:20.260Z,18.41
2023-06-09T04:48:48.865Z,18.33
2023-06-09T04:51:18.299Z,18.41
2023-06-09T04:53:48.400Z,18.38
2023-06-09T04:56:17.679Z,18.37
2023-06-09T04:58:46.560Z,18.57
2023-06-09T05:01:16.268Z,19.15
2023-06-09T05:03:46.834Z,19.67
2023-06-09T05:06:15.139Z,20.11
2023-06-09T05:08:44.014Z,20.50
2023-06-09T05:11:12.520Z,20.96
2023-06-09T05:13:40.891Z,21.07
2023-06-09T05:16:09.238Z,21.68
2023-06-09T05:18:39.514Z,21.61
2023-06-09T05:21:07.591Z,21.32
2023-06-09T05:23:36.713Z,21.42
2023-06-09T05:26:05.308Z,21.58
2023-06-09T05:28:33.641Z,21.66
2023-06-09T05:31:02.764Z,21.21
2023-06-09T05:33:31.244Z,20.91
2023-06-09T05:36:02.379Z,20.55
2023-06-09T05:38:31.921Z,20.77
2023-06-09T05:41:00.075Z,21.06
2023-06-09T05:43:29.394Z,21.25
2023-06-09T05:45:57.701Z,21.16
2023-06-09T05:48:25.981Z,21.41
2023-06-09T05:50:54.393Z,21.71
2023-06-09T05:53:25.147Z,21.71
2023-06-09T05:55:55.039Z,21.93
2023-06-09T05:58:23.145Z,22.07
2023-06-09T06:00:51.927Z,22.20
2023-06-09T06:03:20.624Z,22.59
2023-06-09T06:05:48.647Z,23.22
2023-06-09T06:08:16.800Z,23.48
2023-06-09T06:10:46.127Z,23.63
2023-06-09T06:13:14.688Z,23.35
2023-06-09T06:15:43.117Z,23.49
2023-06-09T06:18:11.718Z,24.16
2023-06-09T06:20:41.766Z,24.63
2023-06-09T06:23:10.081Z,24.93
2023-06-09T06:25:42.692Z,25.13
2023-06-09T06:28:12.962Z,25.48
2023-06-09T06:30:41.579Z,25.67
2023-06-09T06:33:09.677Z,26.20
2023-06-09T06:35:38.206Z,26.39
2023-06-09T06:38:06.254Z,26.53
2023-06-09T06:40:35.406Z,26.79
2023-06-09T06:43:03.687Z,26.72
2023-06-09T06:45:33.238Z,26.90
2023-06-09T06:48:01.866Z,27.50
2023-06-09T06:50:30.187Z,26.83
2023-06-09T06:52:58.408Z,27.05
2023-06-09T06:55:29.337Z,27.50
2023-06-09T06:57:59.543Z,27.19
2023-06-09T07:00:29.236Z,27.34
2023-06-09T07:02:59.318Z,27.85
2023-06-09T07:05:27.868Z,27.80
2023-06-09T07:07:56.394Z,27.53
2023-06-09T07:10:24.699Z,27.48
2023-06-09T07:12:53.377Z,27.20
2023-06-09T07:15:21.591Z,27.00
2023-06-09T07:17:50.239Z,27.16
2023-06-09T07:20:21.084Z,27.62
2023-06-09T07:22:52.733Z,27.77
2023-06-09T07:25:20.928Z,28.52
2023-06-09T07:27:48.929Z,28.13
2023-06-09T07:30:17.703Z,27.97
2023-06-09T07:32:46.498Z,27.67
2023-06-09T07:35:14.903Z,27.40
2023-06-09T07:37:44.618Z,27.36
2023-06-09T07:40:20.079Z,27.25
2023-06-09T07:42:50.444Z,27.63
2023-06-09T07:45:19.276Z,27.39
2023-06-09T07:47:47.469Z,27.24
2023-06-09T07:50:17.030Z,27.20
2023-06-09T07:52:46.959Z,27.04
2023-06-09T07:55:16.209Z,26.77
2023-06-09T07:57:46.853Z,26.83
2023-06-09T08:00:17.198Z,27.10
2023-06-09T08:02:46.894Z,27.05
2023-06-09T08:05:15.336Z,27.42
2023-06-09T08:07:43.674Z,26.76
2023-06-09T08:10:13.862Z,26.71
2023-06-09T08:12:41.874Z,27.22
2023-06-09T08:15:10.942Z,27.96
2023-06-09T08:17:40.450Z,28.12
2023-06-09T08:20:10.426Z,27.73
2023-06-09T08:22:38.920Z,27.54
2023-06-09T08:25:08.646Z,27.21
2023-06-09T08:27:38.484Z,26.87
2023-06-09T08:30:09.021Z,26.51
2023-06-09T08:32:41.355Z,26.13
2023-06-09T08:35:10.583Z,26.24
2023-06-09T08:37:39.941Z,26.45
2023-06-09T08:40:11.378Z,26.54
2023-06-09T08:42:41.524Z,26.42
2023-06-09T08:45:11.534Z,26.61
2023-06-09T08:47:40.548Z,26.68
2023-06-09T08:50:12.233Z,26.55
2023-06-09T08:52:40.702Z,26.65
2023-06-09T08:55:10.315Z,26.69
2023-06-09T08:57:42.800Z,26.53
2023-06-09T09:00:13.210Z,26.35
2023-06-09T09:02:43.806Z,26.43
2023-06-09T09:05:12.573Z,26.50
2023-06-09T09:07:41.829Z,26.83
2023-06-09T09:10:10.740Z,27.16
2023-06-09T09:12:50.761Z,27.09
2023-06-09T09:15:20.265Z,27.22
2023-06-09T09:17:49.418Z,27.50
2023-06-09T09:20:18.412Z,27.50
2023-06-09T09:22:51.133Z,27.25
2023-06-09T09:25:27.397Z,27.28
2023-06-09T09:28:15.976Z,27.03
2023-06-09T09:30:49.772Z,27.28
2023-06-09T09:33:22.017Z,27.35
2023-06-09T09:35:52.428Z,27.46
2023-06-09T09:38:22.928Z,27.27
2023-06-09T09:40:53.145Z,27.05
2023-06-09T09:43:24.156Z,27.18
2023-06-09T09:45:55.058Z,27.28
2023-06-09T09:48:25.441Z,27.27
2023-06-09T09:50:56.263Z,27.63
2023-06-09T09:53:25.609Z,27.50
2023-06-09T09:55:55.746Z,27.70
2023-06-09T09:58:32.306Z,27.62
2023-06-09T10:01:05.278Z,27.59
2023-06-09T10:03:34.629Z,27.52
2023-06-09T10:06:04.780Z,27.82
2023-06-09T10:08:34.498Z,27.88
2023-06-09T10:11:04.536Z,27.85
2023-06-09T10:13:34.531Z,27.88
2023-06-09T10:16:03.193Z,27.98
2023-06-09T10:18:33.494Z,28.19
2023-06-09T10:21:03.549Z,28.73
2023-06-09T10:23:32.624Z,28.83
2023-06-09T10:26:03.553Z,28.57
2023-06-09T10:28:33.466Z,28.34
2023-06-09T10:31:03.720Z,28.14
2023-06-09T10:33:34.724Z,28.19
2023-06-09T10:36:06.846Z,27.97
2023-06-09T10:38:43.520Z,28.24
2023-06-09T10:41:13.698Z,28.29
2023-06-09T10:44:19.425Z,28.57
2023-06-09T10:46:50.739Z,28.82
2023-06-09T10:49:40.603Z,28.93
2023-06-09T10:52:11.555Z,29.20
2023-06-09T10:54:39.838Z,29.20
2023-06-09T10:57:29.116Z,29.34
2023-06-09T10:59:57.147Z,29.43
2023-06-09T11:02:26.836Z,29.05
2023-06-09T11:04:55.134Z,28.73
2023-06-09T11:07:25.014Z,28.57
2023-06-09T11:10:35.731Z,28.36
2023-06-09T11:13:23.002Z,28.03
2023-06-09T11:16:04.057Z,28.00
2023-06-09T11:18:34.617Z,28.00
2023-06-09T11:21:10.949Z,28.36
2023-06-09T11:24:03.008Z,28.34
2023-06-09T11:26:38.133Z,28.61
2023-06-09T11:29:20.664Z,28.60
2023-06-09T11:31:51.123Z,28.30
2023-06-09T11:34:58.730Z,28.16
2023-06-09T11:37:28.765Z,27.69
2023-06-09T11:39:58.381Z,27.20
2023-06-09T11:42:26.671Z,26.56
2023-06-09T11:44:55.223Z,26.09
2023-06-09T11:47:32.753Z,25.91
2023-06-09T11:50:07.852Z,25.90
2023-06-09T11:52:38.001Z,25.63
2023-06-09T11:55:08.085Z,25.59
2023-06-09T11:57:37.253Z,25.63
2023-06-09T12:00:12.737Z,25.72
2023-06-09T12:02:41.876Z,25.78
2023-06-09T12:05:11.618Z,26.01
2023-06-09T12:07:44.908Z,26.08
2023-06-09T12:10:13.726Z,25.80
2023-06-09T12:12:46.132Z,26.31
2023-06-09T12:15:15.513Z,26.29
2023-06-09T12:17:44.608Z,26.34
2023-06-09T12:20:26.262Z,26.50
2023-06-09T12:22:57.399Z,26.54
2023-06-09T12:25:27.821Z,26.70
2023-06-09T12:27:57.177Z,26.86
2023-06-09T12:30:35.397Z,27.20
2023-06-09T12:33:09.096Z,27.00
2023-06-09T12:35:41.741Z,26.76
2023-06-09T12:38:19.164Z,27.04
2023-06-09T12:40:50.945Z,27.03
2023-06-09T12:43:19.594Z,26.99
2023-06-09T12:45:48.726Z,26.79
2023-06-09T12:48:17.736Z,26.78
2023-06-09T12:50:54.201Z,27.12
2023-06-09T12:53:23.665Z,27.16
2023-06-09T12:55:51.599Z,26.92
2023-06-09T12:58:20.084Z,26.75
2023-06-09T13:00:48.485Z,26.67
2023-06-09T13:03:17.957Z,26.79
2023-06-09T13:05:46.570Z,26.92
2023-06-09T13:08:14.771Z,27.09
2023-06-09T13:10:44.654Z,27.13
2023-06-09T13:13:13.212Z,27.15
2023-06-09T13:15:41.699Z,27.34
2023-06-09T13:18:12.456Z,27.34
2023-06-09T13:20:40.954Z,27.28
2023-06-09T13:23:09.153Z,27.01
2023-06-09T13:25:43.793Z,26.98
2023-06-09T13:28:15.616Z,27.08
2023-06-09T13:30:45.361Z,26.88
2023-06-09T13:33:14.501Z,26.28
2023-06-09T13:35:43.258Z,26.76
2023-06-09T13:38:12.393Z,26.92
2023-06-09T13:40:45.204Z,27.06
2023-06-09T13:43:17.780Z,27.05
2023-06-09T13:45:48.083Z,27.08
2023-06-09T13:48:18.518Z,27.16
2023-06-09T13:50:47.029Z,27.11
2023-06-09T13:53:15.377Z,27.03
2023-06-09T13:55:43.727Z,26.91
2023-06-09T13:58:11.990Z,26.86
2023-06-09T14:00:41.667Z,26.86
2023-06-09T14:03:10.461Z,26.95
2023-06-09T14:05:39.223Z,26.95
2023-06-09T14:08:07.457Z,26.75
2023-06-09T14:10:36.207Z,26.64
2023-06-09T14:13:04.710Z,26.63
2023-06-09T14:15:32.920Z,26.54
2023-06-09T14:18:04.106Z,26.54
2023-06-09T14:20:32.746Z,26.46
2023-06-09T14:23:09.986Z,26.40
2023-06-09T14:25:38.385Z,26.34
2023-06-09T14:28:06.712Z,26.25
2023-06-09T14:30:35.240Z,26.23
2023-06-09T14:33:05.087Z,26.17
2023-06-09T14:35:33.410Z,26.14
2023-06-09T14:38:03.320Z,25.95
2023-06-09T14:40:37.137Z,26.27
2023-06-09T14:43:07.441Z,26.33
2023-06-09T14:45:36.490Z,26.36
2023-06-09T14:48:10.195Z,26.27
2023-06-09T14:50:41.175Z,26.33
2023-06-09T14:53:11.882Z,26.08
2023-06-09T14:55:41.515Z,26.32
2023-06-09T14:58:10.655Z,26.41
2023-06-09T15:00:41.296Z,26.29
2023-06-09T15:03:13.391Z,26.27
2023-06-09T15:05:43.780Z,26.49
2023-06-09T15:08:12.428Z,26.60
2023-06-09T15:10:43.384Z,26.62
2023-06-09T15:13:12.913Z,26.10
2023-06-09T15:15:41.442Z,25.57
2023-06-09T15:18:12.254Z,25.18
2023-06-09T15:20:43.198Z,25.22
2023-06-09T15:23:13.068Z,24.63
2023-06-09T15:25:45.003Z,23.53
2023-06-09T15:28:15.869Z,22.13
2023-06-09T15:30:46.095Z,21.36
2023-06-09T15:33:20.107Z,21.30
2023-06-09T15:35:51.027Z,20.93
2023-06-09T15:38:21.762Z,20.26
2023-06-09T15:40:52.258Z,20.30
2023-06-09T15:43:22.912Z,20.14
2023-06-09T15:45:53.078Z,20.09
2023-06-09T15:48:24.146Z,19.93
2023-06-09T15:50:53.211Z,19.20
2023-06-09T15:53:22.336Z,19.66
2023-06-09T15:55:51.515Z,19.54
2023-06-09T15:58:20.160Z,19.50
2023-06-09T16:00:50.769Z,19.48
2023-06-09T16:03:20.061Z,19.64
2023-06-09T16:05:50.387Z,19.89
2023-06-09T16:08:20.204Z,20.26
2023-06-09T16:10:51.555Z,20.47
2023-06-09T16:13:19.778Z,20.70
2023-06-09T16:15:48.134Z,20.89
2023-06-09T16:18:17.905Z,21.13
2023-06-09T16:20:46.262Z,21.23
2023-06-09T16:23:15.969Z,21.23
2023-06-09T16:25:44.925Z,21.30
2023-06-09T16:28:13.236Z,21.34
2023-06-09T16:30:42.314Z,21.47
2023-06-09T16:33:13.790Z,21.53
2023-06-09T16:35:42.197Z,21.37
2023-06-09T16:38:10.665Z,21.71
2023-06-09T16:40:41.607Z,21.51
2023-06-09T16:43:09.627Z,21.58
2023-06-09T16:45:37.892Z,21.73
2023-06-09T16:48:06.605Z,21.83
2023-06-09T16:50:35.020Z,21.85
2023-06-09T16:53:03.621Z,21.88
2023-06-09T16:55:34.748Z,21.88
2023-06-09T16:58:05.579Z,21.86
2023-06-09T17:00:34.085Z,21.98
2023-06-09T17:03:03.450Z,21.84
2023-06-09T17:05:31.828Z,21.80
2023-06-09T17:08:00.556Z,21.88
2023-06-09T17:10:28.782Z,21.92
2023-06-09T17:12:57.384Z,21.93
2023-06-09T17:15:28.597Z,21.64
2023-06-09T17:17:56.869Z,21.15
2023-06-09T17:20:25.532Z,21.47
2023-06-09T17:22:54.581Z,21.27
2023-06-09T17:25:22.742Z,21.23
2023-06-09T17:27:52.904Z,21.18
2023-06-09T17:30:21.648Z,21.09
2023-06-09T17:32:51.695Z,20.93
2023-06-09T17:35:20.788Z,20.91
2023-06-09T17:37:49.496Z,20.37
2023-06-09T17:40:20.256Z,20.72
2023-06-09T17:42:48.314Z,20.65
2023-06-09T17:45:16.850Z,20.64
2023-06-09T17:47:45.656Z,20.55
2023-06-09T17:50:15.304Z,20.51
2023-06-09T17:52:44.949Z,20.69
2023-06-09T17:55:13.836Z,20.81
2023-06-09T17:57:43.576Z,20.79
2023-06-09T18:00:13.907Z,20.85
2023-06-09T18:02:42.132Z,20.77
2023-06-09T18:05:11.286Z,20.73
2023-06-09T18:07:41.635Z,20.59
2023-06-09T18:10:10.229Z,20.58
2023-06-09T18:12:38.410Z,20.66
2023-06-09T18:15:08.946Z,20.68
2023-06-09T18:17:37.739Z,20.72
2023-06-09T18:20:10.285Z,20.73
2023-06-09T18:22:40.118Z,20.59
2023-06-09T18:25:11.020Z,20.69
2023-06-09T18:27:39.476Z,20.77
2023-06-09T18:30:10.013Z,20.77
2023-06-09T18:32:38.666Z,20.68
2023-06-09T18:35:08.467Z,20.60
2023-06-09T18:37:37.004Z,20.63
2023-06-09T18:40:06.275Z,20.23
2023-06-09T18:42:37.238Z,20.56
2023-06-09T18:45:09.297Z,20.45
2023-06-09T18:47:37.970Z,20.26
2023-06-09T18:50:08.330Z,20.02
2023-06-09T18:52:38.845Z,20.07
2023-06-09T18:55:08.473Z,20.06
2023-06-09T18:57:40.439Z,20.00
2023-06-09T19:00:11.622Z,19.88
2023-06-09T19:02:40.457Z,19.90
2023-06-09T19:05:09.410Z,20.01
2023-06-09T19:07:37.973Z,19.99
2023-06-09T19:10:07.125Z,19.95
2023-06-09T19:12:35.724Z,20.05
2023-06-09T19:15:07.068Z,20.03
2023-06-09T19:17:36.793Z,20.01
2023-06-09T19:20:05.499Z,19.89
2023-06-09T19:22:33.797Z,20.15
2023-06-09T19:25:02.197Z,20.09
2023-06-09T19:27:31.728Z,19.85
2023-06-09T19:29:59.816Z,19.80
2023-06-09T19:32:31.449Z,19.76
2023-06-09T19:35:03.112Z,19.43
2023-06-09T19:37:31.249Z,19.70
2023-06-09T19:39:59.869Z,19.75
2023-06-09T19:42:29.348Z,19.66
2023-06-09T19:44:57.707Z,19.68
2023-06-09T19:47:26.464Z,19.69
2023-06-09T19:49:57.097Z,19.65
2023-06-09T19:52:25.448Z,19.61
2023-06-09T19:54:54.051Z,19.54
2023-06-09T19:57:22.460Z,19.36
2023-06-09T19:59:51.795Z,19.59
2023-06-09T20:02:20.430Z,19.59
2023-06-09T20:04:49.212Z,19.49
2023-06-09T20:07:18.746Z,19.50
2023-06-09T20:09:46.924Z,19.57
2023-06-09T20:12:15.254Z,19.50
2023-06-09T20:14:43.516Z,19.44
2023-06-09T20:17:12.073Z,19.32
2023-06-09T20:19:41.376Z,19.37
2023-06-09T20:22:10.928Z,19.44
2023-06-09T20:24:40.312Z,19.34
2023-06-09T20:27:08.525Z,15.91
2023-06-09T20:29:37.461Z,19.32
2023-06-09T20:32:06.814Z,19.37
2023-06-09T20:34:35.145Z,19.31
2023-06-09T20:37:04.334Z,19.18
2023-06-09T20:39:32.860Z,19.08
2023-06-09T20:42:02.611Z,19.20
2023-06-09T20:44:32.378Z,19.10
2023-06-09T20:47:00.490Z,19.05
2023-06-09T20:49:28.842Z,19.17
2023-06-09T20:51:57.139Z,19.18
2023-06-09T20:54:26.246Z,19.18
2023-06-09T20:56:54.703Z,19.16
2023-06-09T20:59:25.259Z,19.13
2023-06-09T21:01:53.452Z,19.14
2023-06-09T21:04:21.616Z,19.19
2023-06-09T21:06:50.971Z,19.09
2023-06-09T21:09:21.045Z,19.05
2023-06-09T21:11:49.145Z,19.02
2023-06-09T21:14:17.337Z,19.05
2023-06-09T21:16:48.179Z,19.08
2023-06-09T21:19:16.609Z,19.04
2023-06-09T21:21:45.125Z,19.06
2023-06-09T21:24:13.687Z,18.96
2023-06-09T21:26:42.484Z,18.94
2023-06-09T21:29:11.038Z,18.96
2023-06-09T21:31:41.498Z,18.90
2023-06-09T21:34:12.400Z,18.96
2023-06-09T21:36:40.807Z,19.01
2023-06-09T21:39:09.403Z,18.66
2023-06-09T21:41:37.841Z,18.86
2023-06-09T21:44:06.057Z,18.83
2023-06-09T21:46:34.269Z,18.74
2023-06-09T21:49:02.600Z,18.72
2023-06-09T21:51:33.195Z,18.75
2023-06-09T21:54:01.423Z,18.36
2023-06-09T21:56:29.669Z,18.79
2023-06-09T21:58:57.862Z,18.77
2023-06-09T22:01:28.322Z,18.73
2023-06-09T22:03:56.546Z,18.65
2023-06-09T22:06:26.011Z,18.65
2023-06-09T22:08:56.775Z,18.69
2023-06-09T22:11:25.997Z,18.63
2023-06-09T22:13:54.078Z,18.38
2023-06-09T22:16:23.022Z,18.44
2023-06-09T22:18:52.587Z,18.27
2023-06-09T22:21:20.666Z,18.37
2023-06-09T22:23:49.693Z,18.32
2023-06-09T22:26:19.757Z,18.14
2023-06-09T22:28:47.848Z,18.23
2023-06-09T22:31:16.875Z,18.22
2023-06-09T22:33:46.577Z,18.34
2023-06-09T22:36:15.946Z,18.28
2023-06-09T22:38:44.583Z,18.24
2023-06-09T22:41:13.893Z,18.24
2023-06-09T22:43:43.191Z,18.32
2023-06-09T22:46:11.688Z,18.25
2023-06-09T22:48:41.233Z,18.40
2023-06-09T22:51:09.410Z,17.87
2023-06-09T22:53:38.389Z,18.30
2023-06-09T22:56:07.592Z,18.43
2023-06-09T22:58:35.570Z,18.50
2023-06-09T23:01:06.024Z,18.42
2023-06-09T23:03:35.416Z,18.31
2023-06-09T23:06:20.222Z,18.40
2023-06-09T23:08:48.548Z,18.53
2023-06-09T23:11:17.452Z,17.69
2023-06-09T23:13:45.674Z,18.44
2023-06-09T23:16:15.652Z,18.56
2023-06-09T23:18:46.243Z,18.61
2023-06-09T23:21:14.413Z,18.13
2023-06-09T23:23:43.563Z,18.23
2023-06-09T23:26:12.313Z,18.17
2023-06-09T23:28:40.455Z,18.22
2023-06-09T23:31:09.098Z,18.27
2023-06-09T23:33:40.027Z,18.38
2023-06-09T23:36:08.438Z,18.24
2023-06-09T23:38:37.085Z,18.24
2023-06-09T23:41:05.356Z,18.37
2023-06-09T23:43:33.897Z,17.96
2023-06-09T23:46:03.524Z,18.53
2023-06-09T23:48:31.749Z,18.40
2023-06-09T23:51:01.545Z,18.33
2023-06-09T23:53:29.854Z,18.58
2023-06-09T23:55:57.937Z,18.57
2023-06-09T23:58:26.535Z,18.60
